createdAt,value
2018-11-28T00:00:39.487Z,0.00
2018-11-28T00:01:39.511Z,0.00
2018-11-28T00:02:39.537Z,0.00
2018-11-28T00:03:39.563Z,0.00
2018-11-28T00:04:39.590Z,0.00
2018-11-28T00:05:39.617Z,0.00
2018-11-28T00:06:39.643Z,0.00
2018-11-28T00:07:39.670Z,0.00
2018-11-28T00:08:39.698Z,0.00
2018-11-28T00:09:39.723Z,0.00
2018-11-28T00:10:39.750Z,0.00
2018-11-28T00:11:39.777Z,0.00
2018-11-28T00:12:39.803Z,0.00
2018-11-28T00:13:39.831Z,0.00
2018-11-28T00:14:39.856Z,0.00
2018-11-28T00:15:39.883Z,0.00
2018-11-28T00:16:39.909Z,0.00
2018-11-28T00:17:39.939Z,0.00
2018-11-28T00:18:39.964Z,0.00
2018-11-28T00:19:39.989Z,0.00
2018-11-28T00:20:40.017Z,0.00
2018-11-28T00:21:40.042Z,0.00
2018-11-28T00:22:40.067Z,0.00
2018-11-28T00:23:40.094Z,0.00
2018-11-28T00:24:40.121Z,0.00
2018-11-28T00:25:40.151Z,0.00
2018-11-28T00:26:40.172Z,0.00
2018-11-28T00:27:40.200Z,0.00
2018-11-28T00:28:40.226Z,0.00
2018-11-28T00:29:40.253Z,0.00
2018-11-28T00:30:40.279Z,0.00
2018-11-28T00:31:40.307Z,0.00
2018-11-28T00:32:40.332Z,0.00
2018-11-28T00:33:40.360Z,0.00
2018-11-28T00:34:40.386Z,0.00
2018-11-28T00:35:40.412Z,0.00
2018-11-28T00:36:40.439Z,0.00
2018-11-28T00:37:40.465Z,0.00
2018-11-28T00:38:40.492Z,0.00
2018-11-28T00:39:40.518Z,0.00
2018-11-28T00:40:40.545Z,0.00
2018-11-28T00:41:40.570Z,0.00
2018-11-28T00:42:40.597Z,0.00
2018-11-28T00:43:40.622Z,0.00
2018-11-28T00:44:40.649Z,0.00
2018-11-28T00:45:40.676Z,0.00
2018-11-28T00:46:40.703Z,0.00
2018-11-28T00:47:40.728Z,0.00
2018-11-28T00:48:40.754Z,0.00
2018-11-28T00:49:40.782Z,0.00
2018-11-28T00:50:40.807Z,0.00
2018-11-28T00:51:40.833Z,0.00
2018-11-28T00:52:40.860Z,0.00
2018-11-28T00:53:40.886Z,0.00
2018-11-28T00:54:40.911Z,0.00
2018-11-28T00:55:40.939Z,0.00
2018-11-28T00:56:40.968Z,0.00
2018-11-28T00:57:40.991Z,0.00
2018-11-28T00:58:41.015Z,0.00
2018-11-28T00:59:41.042Z,0.00
2018-11-28T01:00:41.069Z,0.00
2018-11-28T01:01:41.095Z,0.00
2018-11-28T01:02:41.120Z,0.00
2018-11-28T01:03:41.148Z,0.00
2018-11-28T01:04:41.174Z,0.00
2018-11-28T01:05:41.199Z,0.00
2018-11-28T01:06:41.224Z,0.00
2018-11-28T01:07:41.251Z,0.00
2018-11-28T01:08:41.276Z,0.00
2018-11-28T01:09:41.303Z,0.00
2018-11-28T01:10:41.329Z,0.00
2018-11-28T01:11:41.355Z,0.00
2018-11-28T01:12:41.383Z,0.00
2018-11-28T01:13:41.410Z,0.00
2018-11-28T01:14:41.433Z,0.00
2018-11-28T01:15:41.459Z,0.00
2018-11-28T01:16:42.989Z,0.00
2018-11-28T01:17:41.511Z,0.00
2018-11-28T01:18:41.537Z,0.00
2018-11-28T01:19:41.566Z,0.00
2018-11-28T01:20:41.589Z,0.00
2018-11-28T01:21:41.615Z,0.00
2018-11-28T01:22:41.643Z,0.00
2018-11-28T01:23:41.668Z,0.00
2018-11-28T01:24:41.695Z,0.00
2018-11-28T01:25:41.722Z,0.00
2018-11-28T01:26:41.745Z,0.00
2018-11-28T01:27:41.771Z,0.00
2018-11-28T01:28:46.393Z,0.00
2018-11-28T01:29:41.826Z,0.00
2018-11-28T01:30:41.850Z,0.00
2018-11-28T01:31:41.876Z,0.00
2018-11-28T01:32:41.902Z,0.00
2018-11-28T01:33:41.928Z,0.00
2018-11-28T01:34:41.953Z,0.00
2018-11-28T01:35:41.980Z,0.00
2018-11-28T01:36:42.007Z,0.00
2018-11-28T01:37:42.033Z,0.00
2018-11-28T01:38:42.058Z,0.00
2018-11-28T01:39:42.083Z,0.00
2018-11-28T01:40:42.109Z,0.00
2018-11-28T01:41:42.137Z,0.00
2018-11-28T01:42:42.161Z,0.00
2018-11-28T01:43:42.187Z,0.00
2018-11-28T01:44:42.214Z,0.00
2018-11-28T01:45:42.240Z,0.00
2018-11-28T01:46:42.265Z,0.00
2018-11-28T01:47:42.298Z,0.00
2018-11-28T01:48:42.318Z,0.00
2018-11-28T01:49:42.343Z,0.00
2018-11-28T01:50:42.368Z,0.00
2018-11-28T01:51:42.395Z,0.00
2018-11-28T01:52:42.422Z,0.00
2018-11-28T01:53:42.448Z,0.00
2018-11-28T01:54:42.472Z,0.00
2018-11-28T01:55:42.500Z,0.00
2018-11-28T01:56:42.526Z,0.00
2018-11-28T01:57:42.551Z,0.00
2018-11-28T01:58:42.575Z,0.00
2018-11-28T01:59:42.604Z,0.00
2018-11-28T02:00:42.628Z,0.00
2018-11-28T02:01:42.657Z,0.00
2018-11-28T02:02:42.679Z,0.00
2018-11-28T02:03:42.706Z,0.00
2018-11-28T02:04:42.731Z,0.00
2018-11-28T02:05:42.759Z,0.00
2018-11-28T02:06:42.784Z,0.00
2018-11-28T02:07:42.809Z,0.00
2018-11-28T02:08:42.836Z,0.00
2018-11-28T02:09:42.861Z,0.00
2018-11-28T02:10:42.885Z,0.00
2018-11-28T02:11:42.912Z,0.00
2018-11-28T02:12:42.938Z,0.00
2018-11-28T02:13:42.965Z,0.00
2018-11-28T02:14:42.990Z,0.00
2018-11-28T02:15:43.017Z,0.00
2018-11-28T02:16:43.042Z,0.00
2018-11-28T02:17:43.068Z,0.00
2018-11-28T02:18:43.094Z,0.00
2018-11-28T02:19:43.120Z,0.00
2018-11-28T02:20:43.146Z,0.00
2018-11-28T02:21:43.180Z,0.00
2018-11-28T02:22:43.208Z,0.00
2018-11-28T02:23:43.222Z,0.00
2018-11-28T02:24:43.247Z,0.00
2018-11-28T02:25:43.273Z,0.00
2018-11-28T02:26:43.298Z,0.00
2018-11-28T02:27:43.327Z,0.00
2018-11-28T02:28:43.352Z,0.00
2018-11-28T02:29:43.377Z,0.00
2018-11-28T02:30:43.404Z,0.00
2018-11-28T02:31:43.428Z,0.00
2018-11-28T02:32:43.458Z,0.00
2018-11-28T02:33:43.479Z,0.00
2018-11-28T02:34:43.505Z,0.00
2018-11-28T02:35:43.530Z,0.00
2018-11-28T02:36:43.559Z,0.00
2018-11-28T02:37:43.584Z,0.00
2018-11-28T02:38:43.607Z,0.00
2018-11-28T02:39:43.634Z,0.00
2018-11-28T02:40:43.659Z,0.00
2018-11-28T02:41:43.686Z,0.00
2018-11-28T02:42:43.710Z,0.00
2018-11-28T02:43:43.736Z,0.00
2018-11-28T02:44:43.763Z,0.00
2018-11-28T02:45:43.790Z,0.00
2018-11-28T02:46:43.814Z,0.00
2018-11-28T02:47:43.845Z,0.00
2018-11-28T02:48:43.865Z,0.00
2018-11-28T02:49:43.892Z,0.00
2018-11-28T02:50:43.916Z,0.00
2018-11-28T02:51:43.942Z,0.00
2018-11-28T02:52:43.968Z,0.00
2018-11-28T02:53:43.995Z,0.00
2018-11-28T02:54:44.018Z,0.00
2018-11-28T02:55:45.047Z,0.00
2018-11-28T02:56:44.071Z,0.00
2018-11-28T02:57:44.098Z,0.00
2018-11-28T02:58:44.123Z,0.00
2018-11-28T02:59:44.149Z,0.00
2018-11-28T03:00:44.175Z,0.00
2018-11-28T03:01:44.199Z,0.00
2018-11-28T03:02:44.224Z,0.00
2018-11-28T03:03:44.252Z,0.00
2018-11-28T03:04:44.277Z,0.00
2018-11-28T03:05:44.306Z,0.00
2018-11-28T03:06:44.328Z,0.00
2018-11-28T03:07:44.367Z,0.00
2018-11-28T03:08:44.380Z,0.00
2018-11-28T03:09:44.405Z,0.00
2018-11-28T03:10:44.431Z,0.00
2018-11-28T03:11:44.457Z,0.00
2018-11-28T03:12:44.482Z,0.00
2018-11-28T03:13:44.512Z,0.00
2018-11-28T03:14:44.532Z,0.00
2018-11-28T03:15:44.563Z,0.00
2018-11-28T03:16:44.584Z,0.00
2018-11-28T03:17:44.611Z,0.00
2018-11-28T03:18:44.636Z,0.00
2018-11-28T03:19:44.661Z,0.00
2018-11-28T03:20:44.687Z,0.00
2018-11-28T03:21:44.723Z,0.00
2018-11-28T03:22:44.738Z,0.00
2018-11-28T03:23:44.765Z,0.00
2018-11-28T03:24:44.789Z,0.00
2018-11-28T03:25:44.816Z,0.00
2018-11-28T03:26:44.839Z,0.00
2018-11-28T03:27:44.865Z,0.00
2018-11-28T03:28:44.889Z,0.00
2018-11-28T03:29:44.920Z,0.00
2018-11-28T03:30:44.941Z,0.00
2018-11-28T03:31:44.969Z,0.00
2018-11-28T03:32:44.997Z,0.00
2018-11-28T03:33:45.021Z,0.00
2018-11-28T03:34:45.526Z,0.00
2018-11-28T03:35:45.078Z,0.00
2018-11-28T03:36:45.095Z,0.00
2018-11-28T03:37:45.123Z,0.00
2018-11-28T03:38:45.146Z,0.00
2018-11-28T03:39:45.172Z,0.00
2018-11-28T03:40:45.202Z,0.00
2018-11-28T03:41:45.230Z,0.00
2018-11-28T03:42:45.249Z,0.00
2018-11-28T03:43:45.274Z,0.00
2018-11-28T03:44:45.299Z,0.00
2018-11-28T03:45:45.338Z,0.00
2018-11-28T03:46:45.349Z,0.00
2018-11-28T03:47:45.374Z,0.00
2018-11-28T03:48:45.401Z,0.00
2018-11-28T03:49:45.427Z,0.00
2018-11-28T03:50:45.451Z,0.00
2018-11-28T03:51:45.477Z,0.00
2018-11-28T03:52:45.508Z,0.00
2018-11-28T03:53:45.530Z,0.00
2018-11-28T03:54:45.553Z,0.00
2018-11-28T03:55:45.578Z,0.00
2018-11-28T03:56:45.604Z,0.00
2018-11-28T03:57:45.628Z,0.00
2018-11-28T03:58:45.652Z,0.00
2018-11-28T03:59:45.686Z,0.00
2018-11-28T04:00:45.705Z,0.00
2018-11-28T04:01:45.731Z,0.00
2018-11-28T04:02:45.756Z,0.00
2018-11-28T04:03:45.781Z,0.00
2018-11-28T04:04:45.808Z,0.00
2018-11-28T04:05:45.832Z,0.00
2018-11-28T04:06:45.857Z,0.00
2018-11-28T04:07:45.881Z,0.00
2018-11-28T04:08:45.907Z,0.00
2018-11-28T04:09:45.933Z,0.00
2018-11-28T04:10:45.957Z,0.00
2018-11-28T04:11:45.983Z,0.00
2018-11-28T04:12:46.009Z,0.00
2018-11-28T04:13:46.035Z,0.00
2018-11-28T04:14:46.065Z,0.00
2018-11-28T04:15:46.086Z,0.00
2018-11-28T04:16:46.112Z,0.00
2018-11-28T04:17:46.135Z,0.00
2018-11-28T04:18:46.160Z,0.00
2018-11-28T04:19:46.186Z,0.00
2018-11-28T04:20:46.210Z,0.00
2018-11-28T04:21:46.236Z,0.00
2018-11-28T04:22:46.271Z,0.00
2018-11-28T04:23:46.286Z,0.00
2018-11-28T04:24:46.312Z,0.00
2018-11-28T04:25:46.338Z,0.00
2018-11-28T04:26:46.361Z,0.00
2018-11-28T04:27:46.387Z,0.00
2018-11-28T04:28:46.412Z,0.00
2018-11-28T04:29:46.439Z,0.00
2018-11-28T04:30:46.462Z,0.00
2018-11-28T04:31:46.488Z,0.00
2018-11-28T04:32:46.519Z,0.00
2018-11-28T04:33:46.540Z,0.00
2018-11-28T04:34:46.566Z,0.00
2018-11-28T04:35:46.590Z,0.00
2018-11-28T04:36:46.615Z,0.00
2018-11-28T04:37:46.642Z,0.00
2018-11-28T04:38:46.664Z,0.00
2018-11-28T04:39:46.691Z,0.00
2018-11-28T04:40:46.715Z,0.00
2018-11-28T04:41:46.740Z,0.00
2018-11-28T04:42:46.771Z,0.00
2018-11-28T04:43:46.790Z,0.00
2018-11-28T04:44:46.815Z,0.00
2018-11-28T04:45:46.841Z,0.00
2018-11-28T04:46:46.865Z,0.00
2018-11-28T04:47:46.893Z,0.00
2018-11-28T04:48:46.917Z,0.00
2018-11-28T04:49:46.942Z,0.00
2018-11-28T04:50:46.965Z,0.00
2018-11-28T04:51:46.994Z,0.00
2018-11-28T04:52:47.028Z,0.00
2018-11-28T04:53:47.042Z,0.00
2018-11-28T04:54:47.066Z,0.00
2018-11-28T04:55:47.091Z,0.00
2018-11-28T04:56:47.115Z,0.00
2018-11-28T04:57:47.146Z,0.00
2018-11-28T04:58:47.165Z,0.00
2018-11-28T04:59:47.190Z,0.00
2018-11-28T05:00:47.215Z,0.00
2018-11-28T05:01:47.240Z,0.00
2018-11-28T05:02:47.264Z,0.00
2018-11-28T05:03:47.290Z,0.00
2018-11-28T05:04:47.316Z,0.00
2018-11-28T05:05:47.341Z,0.00
2018-11-28T05:06:47.366Z,0.00
2018-11-28T05:07:47.389Z,0.00
2018-11-28T05:08:47.414Z,0.00
2018-11-28T05:09:47.445Z,0.00
2018-11-28T05:10:47.463Z,0.00
2018-11-28T05:11:47.490Z,0.00
2018-11-28T05:12:47.529Z,0.00
2018-11-28T05:13:47.539Z,0.00
2018-11-28T05:14:47.615Z,0.00
2018-11-28T05:15:47.588Z,0.00
2018-11-28T05:16:47.613Z,0.00
2018-11-28T05:17:47.638Z,0.00
2018-11-28T05:18:47.662Z,0.00
2018-11-28T05:19:47.688Z,0.00
2018-11-28T05:20:47.713Z,0.00
2018-11-28T05:21:47.739Z,0.00
2018-11-28T05:22:47.761Z,0.00
2018-11-28T05:23:47.786Z,0.00
2018-11-28T05:24:47.812Z,0.00
2018-11-28T05:25:47.836Z,0.00
2018-11-28T05:26:47.860Z,0.00
2018-11-28T05:27:47.885Z,0.00
2018-11-28T05:28:47.911Z,0.00
2018-11-28T05:29:47.936Z,0.00
2018-11-28T05:30:47.958Z,0.00
2018-11-28T05:31:47.984Z,0.00
2018-11-28T05:32:48.008Z,0.00
2018-11-28T05:33:48.033Z,0.00
2018-11-28T05:34:48.059Z,0.00
2018-11-28T05:35:48.084Z,0.00
2018-11-28T05:36:48.111Z,0.00
2018-11-28T05:37:48.168Z,0.00
2018-11-28T05:38:48.154Z,0.00
2018-11-28T05:39:48.181Z,0.00
2018-11-28T05:40:48.210Z,0.00
2018-11-28T05:41:48.230Z,0.00
2018-11-28T05:42:48.257Z,0.00
2018-11-28T05:43:48.280Z,0.00
2018-11-28T05:44:48.304Z,0.00
2018-11-28T05:45:48.328Z,0.00
2018-11-28T05:46:48.353Z,0.00
2018-11-28T05:47:48.377Z,0.00
2018-11-28T05:48:48.402Z,0.00
2018-11-28T05:49:48.428Z,0.00
2018-11-28T05:50:48.451Z,0.00
2018-11-28T05:51:48.476Z,0.00
2018-11-28T05:52:48.501Z,0.00
2018-11-28T05:53:48.526Z,0.00
2018-11-28T05:54:48.548Z,0.00
2018-11-28T05:55:48.574Z,0.00
2018-11-28T05:56:48.598Z,0.00
2018-11-28T05:57:48.624Z,0.00
2018-11-28T05:58:48.647Z,0.00
2018-11-28T05:59:48.673Z,0.00
2018-11-28T06:00:48.696Z,0.00
2018-11-28T06:01:48.721Z,0.00
2018-11-28T06:02:48.746Z,0.00
2018-11-28T06:03:48.771Z,0.00
2018-11-28T06:04:48.794Z,0.00
2018-11-28T06:05:48.819Z,0.00
2018-11-28T06:06:48.848Z,0.00
2018-11-28T06:07:48.868Z,0.00
2018-11-28T06:08:48.895Z,0.00
2018-11-28T06:09:48.919Z,0.00
2018-11-28T06:10:48.944Z,0.00
2018-11-28T06:11:48.966Z,0.00
2018-11-28T06:12:49.053Z,0.00
2018-11-28T06:13:49.017Z,0.00
2018-11-28T06:14:49.039Z,0.00
2018-11-28T06:15:49.064Z,0.00
2018-11-28T06:16:49.089Z,0.00
2018-11-28T06:17:49.114Z,0.00
2018-11-28T06:18:49.137Z,0.00
2018-11-28T06:19:49.161Z,0.00
2018-11-28T06:20:49.187Z,0.00
2018-11-28T06:21:49.212Z,0.00
2018-11-28T06:22:49.237Z,4.00
2018-11-28T06:23:49.260Z,4.00
2018-11-28T06:24:49.285Z,0.00
2018-11-28T06:25:49.308Z,4.00
2018-11-28T06:26:49.333Z,4.00
2018-11-28T06:27:49.363Z,4.00
2018-11-28T06:28:49.903Z,8.00
2018-11-28T06:29:49.407Z,8.00
2018-11-28T06:30:49.431Z,8.00
2018-11-28T06:31:49.457Z,8.00
2018-11-28T06:32:51.496Z,12.00
2018-11-28T06:33:50.707Z,12.00
2018-11-28T06:34:49.529Z,12.00
2018-11-28T06:35:49.554Z,16.00
2018-11-28T06:36:49.583Z,20.00
2018-11-28T06:37:49.603Z,24.00
2018-11-28T06:38:49.627Z,28.00
2018-11-28T06:39:49.652Z,28.00
2018-11-28T06:40:49.678Z,36.00
2018-11-28T06:41:49.702Z,44.00
2018-11-28T06:42:49.726Z,48.00
2018-11-28T06:43:49.751Z,56.00
2018-11-28T06:44:49.776Z,60.00
2018-11-28T06:45:49.798Z,64.00
2018-11-28T06:46:49.823Z,76.00
2018-11-28T06:47:49.849Z,88.00
2018-11-28T06:48:49.873Z,100.00
2018-11-28T06:49:49.962Z,108.00
2018-11-28T06:50:49.921Z,120.00
2018-11-28T06:51:49.946Z,136.00
2018-11-28T06:52:49.970Z,148.00
2018-11-28T06:53:49.997Z,168.00
2018-11-28T06:54:50.023Z,184.00
2018-11-28T06:55:50.049Z,200.00
2018-11-28T06:56:50.071Z,220.00
2018-11-28T06:57:50.096Z,236.00
2018-11-28T06:58:50.117Z,244.00
2018-11-28T06:59:50.144Z,260.00
2018-11-28T07:00:50.171Z,272.00
2018-11-28T07:01:50.192Z,296.00
2018-11-28T07:02:50.216Z,332.00
2018-11-28T07:03:50.241Z,356.00
2018-11-28T07:04:50.267Z,380.00
2018-11-28T07:05:50.290Z,416.00
2018-11-28T07:06:50.314Z,448.00
2018-11-28T07:07:50.339Z,480.00
2018-11-28T07:08:50.364Z,516.00
2018-11-28T07:09:50.389Z,548.00
2018-11-28T07:10:50.413Z,584.00
2018-11-28T07:11:50.439Z,616.00
2018-11-28T07:12:50.462Z,648.00
2018-11-28T07:13:50.487Z,680.00
2018-11-28T07:14:50.513Z,704.00
2018-11-28T07:15:50.537Z,728.00
2018-11-28T07:16:50.562Z,760.00
2018-11-28T07:17:50.587Z,792.00
2018-11-28T07:18:50.610Z,812.00
2018-11-28T07:19:50.635Z,836.00
2018-11-28T07:20:50.677Z,864.00
2018-11-28T07:21:50.684Z,908.00
2018-11-28T07:22:50.708Z,952.00
2018-11-28T07:23:50.738Z,996.00
2018-11-28T07:24:50.760Z,1048.00
2018-11-28T07:25:50.784Z,1100.00
2018-11-28T07:26:50.807Z,1164.00
2018-11-28T07:27:50.836Z,1220.00
2018-11-28T07:28:50.860Z,1276.00
2018-11-28T07:29:50.885Z,1340.00
2018-11-28T07:30:50.905Z,1412.00
2018-11-28T07:31:50.930Z,1492.00
2018-11-28T07:32:50.955Z,1576.00
2018-11-28T07:33:50.983Z,1652.00
2018-11-28T07:34:51.021Z,1728.00
2018-11-28T07:35:51.029Z,1812.00
2018-11-28T07:36:51.054Z,1916.00
2018-11-28T07:37:51.079Z,2032.00
2018-11-28T07:38:51.104Z,2148.00
2018-11-28T07:39:51.128Z,2268.00
2018-11-28T07:40:51.155Z,2376.00
2018-11-28T07:41:51.178Z,2476.00
2018-11-28T07:42:51.202Z,2556.00
2018-11-28T07:43:51.227Z,2628.00
2018-11-28T07:44:51.254Z,2716.00
2018-11-28T07:45:51.278Z,2828.00
2018-11-28T07:46:51.302Z,2936.00
2018-11-28T07:47:51.330Z,3080.00
2018-11-28T07:48:51.353Z,3240.00
2018-11-28T07:49:51.377Z,3400.00
2018-11-28T07:50:51.401Z,3568.00
2018-11-28T07:51:51.425Z,3736.00
2018-11-28T07:52:51.451Z,3864.00
2018-11-28T07:53:51.477Z,3948.00
2018-11-28T07:54:51.501Z,4028.00
2018-11-28T07:55:51.526Z,4128.00
2018-11-28T07:56:51.553Z,4208.00
2018-11-28T07:57:51.577Z,4276.00
2018-11-28T07:58:51.601Z,4320.00
2018-11-28T07:59:51.627Z,4316.00
2018-11-28T08:00:51.653Z,4332.00
2018-11-28T08:01:51.678Z,4376.00
2018-11-28T08:02:51.702Z,4396.00
2018-11-28T08:03:51.769Z,4452.00
2018-11-28T08:04:51.753Z,4508.00
2018-11-28T08:05:51.779Z,4568.00
2018-11-28T08:06:51.803Z,4728.00
2018-11-28T08:07:51.827Z,5104.00
2018-11-28T08:08:51.855Z,5384.00
2018-11-28T08:09:51.880Z,5364.00
2018-11-28T08:10:51.905Z,4724.00
2018-11-28T08:11:51.933Z,4528.00
2018-11-28T08:12:51.957Z,4476.00
2018-11-28T08:13:51.985Z,4560.00
2018-11-28T08:14:52.010Z,4664.00
2018-11-28T08:15:52.035Z,4708.00
2018-11-28T08:16:52.062Z,4784.00
2018-11-28T08:17:52.086Z,4900.00
2018-11-28T08:18:52.110Z,5028.00
2018-11-28T08:19:52.140Z,5164.00
2018-11-28T08:20:52.163Z,5292.00
2018-11-28T08:21:52.640Z,5380.00
2018-11-28T08:22:52.214Z,5440.00
2018-11-28T08:23:52.240Z,5492.00
2018-11-28T08:24:52.266Z,5556.00
2018-11-28T08:25:52.293Z,5636.00
2018-11-28T08:26:52.343Z,5736.00
2018-11-28T08:27:52.346Z,5840.00
2018-11-28T08:28:52.370Z,5904.00
2018-11-28T08:29:52.404Z,5940.00
2018-11-28T08:30:52.422Z,5964.00
2018-11-28T08:31:52.448Z,5972.00
2018-11-28T08:32:52.481Z,5980.00
2018-11-28T08:33:52.513Z,5996.00
2018-11-28T08:34:52.527Z,6056.00
2018-11-28T08:35:52.553Z,6192.00
2018-11-28T08:36:52.585Z,6368.00
2018-11-28T08:37:52.606Z,6552.00
2018-11-28T08:38:52.631Z,6700.00
2018-11-28T08:39:52.658Z,6784.00
2018-11-28T08:40:52.685Z,6836.00
2018-11-28T08:41:52.711Z,6900.00
2018-11-28T08:42:52.736Z,6984.00
2018-11-28T08:43:52.763Z,7060.00
2018-11-28T08:44:52.909Z,7124.00
2018-11-28T08:45:52.817Z,7196.00
2018-11-28T08:46:52.844Z,7324.00
2018-11-28T08:47:52.870Z,7536.00
2018-11-28T08:48:52.897Z,7852.00
2018-11-28T08:49:52.924Z,7972.00
2018-11-28T08:50:52.953Z,7872.00
2018-11-28T08:51:52.977Z,7920.00
2018-11-28T08:52:53.004Z,8032.00
2018-11-28T08:53:53.031Z,8100.00
2018-11-28T08:54:53.056Z,8168.00
2018-11-28T08:55:53.086Z,8124.00
2018-11-28T08:56:53.111Z,8088.00
2018-11-28T08:57:53.198Z,8080.00
2018-11-28T08:58:53.167Z,8124.00
2018-11-28T08:59:53.192Z,8184.00
2018-11-28T09:00:53.218Z,8216.00
2018-11-28T09:01:53.245Z,8232.00
2018-11-28T09:02:53.275Z,8236.00
2018-11-28T09:03:53.299Z,8268.00
2018-11-28T09:04:53.327Z,8276.00
2018-11-28T09:05:53.354Z,8276.00
2018-11-28T09:06:53.381Z,8248.00
2018-11-28T09:07:53.409Z,8172.00
2018-11-28T09:08:53.435Z,8032.00
2018-11-28T09:09:53.463Z,7836.00
2018-11-28T09:10:53.489Z,7568.00
2018-11-28T09:11:53.517Z,7312.00
2018-11-28T09:12:53.546Z,7064.00
2018-11-28T09:13:53.723Z,6884.00
2018-11-28T09:14:53.599Z,6772.00
2018-11-28T09:15:53.627Z,6696.00
2018-11-28T09:16:53.655Z,6660.00
2018-11-28T09:17:53.693Z,6624.00
2018-11-28T09:18:53.709Z,6604.00
2018-11-28T09:19:53.735Z,6596.00
2018-11-28T09:20:53.768Z,6604.00
2018-11-28T09:21:53.792Z,6684.00
2018-11-28T09:22:53.914Z,6924.00
2018-11-28T09:23:53.859Z,7004.00
2018-11-28T09:24:53.873Z,6908.00
2018-11-28T09:25:53.901Z,6812.00
2018-11-28T09:26:53.930Z,6880.00
2018-11-28T09:27:53.955Z,7004.00
2018-11-28T09:28:53.982Z,7168.00
2018-11-28T09:29:54.011Z,7360.00
2018-11-28T09:30:54.306Z,7576.00
2018-11-28T09:31:54.065Z,7808.00
2018-11-28T09:32:54.093Z,8040.00
2018-11-28T09:33:54.131Z,8272.00
2018-11-28T09:34:54.148Z,8512.00
2018-11-28T09:35:54.175Z,8732.00
2018-11-28T09:36:54.205Z,8964.00
2018-11-28T09:37:54.230Z,9168.00
2018-11-28T09:38:54.257Z,9356.00
2018-11-28T09:39:54.285Z,9552.00
2018-11-28T09:40:54.313Z,9688.00
2018-11-28T09:41:54.341Z,9888.00
2018-11-28T09:42:54.370Z,9900.00
2018-11-28T09:43:54.396Z,9596.00
2018-11-28T09:44:54.427Z,9436.00
2018-11-28T09:45:54.463Z,9388.00
2018-11-28T09:46:54.480Z,9420.00
2018-11-28T09:47:54.508Z,9612.00
2018-11-28T09:48:54.537Z,9828.00
2018-11-28T09:49:54.565Z,10004.00
2018-11-28T09:50:54.591Z,10208.00
2018-11-28T09:51:54.619Z,10332.00
2018-11-28T09:52:54.654Z,10680.00
2018-11-28T09:53:54.675Z,11080.00
2018-11-28T09:54:54.703Z,11508.00
2018-11-28T09:55:54.731Z,11968.00
2018-11-28T09:56:54.761Z,12456.00
2018-11-28T09:57:54.788Z,12860.00
2018-11-28T09:58:54.815Z,13144.00
2018-11-28T09:59:54.845Z,13420.00
2018-11-28T10:00:54.873Z,13392.00
2018-11-28T10:01:54.900Z,13668.00
2018-11-28T10:02:54.929Z,14008.00
2018-11-28T10:03:54.960Z,14160.00
2018-11-28T10:04:54.988Z,14008.00
2018-11-28T10:05:55.016Z,13824.00
2018-11-28T10:06:55.043Z,13888.00
2018-11-28T10:07:55.075Z,13864.00
2018-11-28T10:08:55.103Z,13732.00
2018-11-28T10:09:55.130Z,13832.00
2018-11-28T10:10:57.763Z,13948.00
2018-11-28T10:11:55.188Z,14272.00
2018-11-28T10:12:55.219Z,14864.00
2018-11-28T10:13:55.246Z,15212.00
2018-11-28T10:14:55.277Z,15576.00
2018-11-28T10:15:55.304Z,16032.00
2018-11-28T10:16:55.827Z,16064.00
2018-11-28T10:17:55.370Z,16320.00
2018-11-28T10:18:55.390Z,16832.00
2018-11-28T10:19:55.420Z,16992.00
2018-11-28T10:20:55.450Z,16800.00
2018-11-28T10:21:55.480Z,16672.00
2018-11-28T10:22:55.509Z,16384.00
2018-11-28T10:23:55.537Z,16256.00
2018-11-28T10:24:55.568Z,16256.00
2018-11-28T10:25:55.599Z,16224.00
2018-11-28T10:26:55.627Z,16992.00
2018-11-28T10:27:55.715Z,17920.00
2018-11-28T10:28:55.688Z,18176.00
2018-11-28T10:29:55.718Z,18464.00
2018-11-28T10:30:55.746Z,18400.00
2018-11-28T10:31:55.777Z,18368.00
2018-11-28T10:32:55.807Z,18400.00
2018-11-28T10:33:55.837Z,17792.00
2018-11-28T10:34:55.870Z,17472.00
2018-11-28T10:35:55.900Z,16960.00
2018-11-28T10:36:55.929Z,16064.00
2018-11-28T10:37:55.959Z,14968.00
2018-11-28T10:38:55.988Z,14776.00
2018-11-28T10:39:56.021Z,14672.00
2018-11-28T10:40:56.049Z,14612.00
2018-11-28T10:41:56.080Z,14668.00
2018-11-28T10:42:56.110Z,15084.00
2018-11-28T10:43:56.141Z,15400.00
2018-11-28T10:44:56.176Z,15364.00
2018-11-28T10:45:56.206Z,15584.00
2018-11-28T10:46:56.233Z,15604.00
2018-11-28T10:47:56.270Z,15468.00
2018-11-28T10:48:56.294Z,14860.00
2018-11-28T10:49:56.325Z,14376.00
2018-11-28T10:50:56.355Z,13796.00
2018-11-28T10:51:56.385Z,13132.00
2018-11-28T10:52:56.417Z,12580.00
2018-11-28T10:53:56.448Z,12032.00
2018-11-28T10:54:56.479Z,11420.00
2018-11-28T10:55:56.510Z,10828.00
2018-11-28T10:56:56.540Z,10420.00
2018-11-28T10:57:56.572Z,10152.00
2018-11-28T10:58:56.602Z,9948.00
2018-11-28T10:59:56.633Z,9780.00
2018-11-28T11:00:56.663Z,9684.00
2018-11-28T11:01:56.695Z,9596.00
2018-11-28T11:02:56.724Z,9532.00
2018-11-28T11:03:56.755Z,9476.00
2018-11-28T11:04:57.078Z,9432.00
2018-11-28T11:05:56.817Z,9420.00
2018-11-28T11:06:56.846Z,9428.00
2018-11-28T11:07:56.877Z,9460.00
2018-11-28T11:08:56.908Z,9516.00
2018-11-28T11:09:56.939Z,9616.00
2018-11-28T11:10:56.968Z,9740.00
2018-11-28T11:11:57.000Z,9868.00
2018-11-28T11:12:57.030Z,10000.00
2018-11-28T11:13:57.065Z,10136.00
2018-11-28T11:14:57.089Z,10276.00
2018-11-28T11:15:57.121Z,10392.00
2018-11-28T11:16:57.152Z,10492.00
2018-11-28T11:18:02.114Z,10536.00
2018-11-28T11:18:57.211Z,10488.00
2018-11-28T11:19:57.245Z,10420.00
2018-11-28T11:20:57.272Z,10312.00
2018-11-28T11:21:57.304Z,10196.00
2018-11-28T11:22:57.333Z,10104.00
2018-11-28T11:23:57.365Z,10052.00
2018-11-28T11:24:57.394Z,10052.00
2018-11-28T11:25:57.425Z,10168.00
2018-11-28T11:26:57.455Z,10272.00
2018-11-28T11:27:57.485Z,10480.00
2018-11-28T11:28:57.517Z,10712.00
2018-11-28T11:29:57.603Z,10852.00
2018-11-28T11:30:57.628Z,11012.00
2018-11-28T11:31:57.606Z,11084.00
2018-11-28T11:32:57.638Z,11004.00
2018-11-28T11:33:57.669Z,10732.00
2018-11-28T11:34:57.702Z,10520.00
2018-11-28T11:35:57.728Z,10372.00
2018-11-28T11:36:57.759Z,10244.00
2018-11-28T11:37:57.790Z,10096.00
2018-11-28T11:38:57.829Z,9952.00
2018-11-28T11:39:57.849Z,9824.00
2018-11-28T11:40:57.879Z,9776.00
2018-11-28T11:41:57.910Z,9852.00
2018-11-28T11:42:57.939Z,9988.00
2018-11-28T11:43:57.970Z,10140.00
2018-11-28T11:44:58.000Z,10316.00
2018-11-28T11:45:58.031Z,10380.00
2018-11-28T11:46:58.060Z,10296.00
2018-11-28T11:47:58.091Z,10180.00
2018-11-28T11:48:58.123Z,10084.00
2018-11-28T11:49:58.152Z,10008.00
2018-11-28T11:50:58.192Z,9904.00
2018-11-28T11:51:58.212Z,9816.00
2018-11-28T11:52:58.242Z,9756.00
2018-11-28T11:53:58.276Z,9676.00
2018-11-28T11:54:58.303Z,9612.00
2018-11-28T11:55:58.338Z,9612.00
2018-11-28T11:56:58.363Z,9644.00
2018-11-28T11:57:58.395Z,9680.00
2018-11-28T11:58:58.424Z,9732.00
2018-11-28T11:59:58.455Z,9756.00
2018-11-28T12:00:58.484Z,9740.00
2018-11-28T12:01:58.513Z,9660.00
2018-11-28T12:02:58.544Z,9480.00
2018-11-28T12:03:58.683Z,9184.00
2018-11-28T12:04:58.604Z,8872.00
2018-11-28T12:05:58.639Z,8620.00
2018-11-28T12:06:58.664Z,8460.00
2018-11-28T12:07:58.693Z,8356.00
2018-11-28T12:08:58.724Z,8256.00
2018-11-28T12:09:58.755Z,8148.00
2018-11-28T12:10:58.784Z,7992.00
2018-11-28T12:11:58.814Z,7836.00
2018-11-28T12:12:58.847Z,7684.00
2018-11-28T12:13:58.874Z,7544.00
2018-11-28T12:14:58.903Z,7424.00
2018-11-28T12:15:58.935Z,7344.00
2018-11-28T12:16:58.964Z,7304.00
2018-11-28T12:17:58.993Z,7284.00
2018-11-28T12:18:59.023Z,7284.00
2018-11-28T12:19:59.052Z,7292.00
2018-11-28T12:20:59.083Z,7352.00
2018-11-28T12:21:59.113Z,7448.00
2018-11-28T12:22:59.142Z,7604.00
2018-11-28T12:23:59.172Z,7812.00
2018-11-28T12:24:59.202Z,8184.00
2018-11-28T12:25:59.231Z,8784.00
2018-11-28T12:27:00.080Z,9628.00
2018-11-28T12:27:59.290Z,10580.00
2018-11-28T12:28:59.320Z,11308.00
2018-11-28T12:30:00.853Z,11520.00
2018-11-28T12:30:59.380Z,11708.00
2018-11-28T12:31:59.409Z,11768.00
2018-11-28T12:32:59.439Z,11212.00
2018-11-28T12:33:59.468Z,10884.00
2018-11-28T12:34:59.499Z,10320.00
2018-11-28T12:35:59.528Z,9988.00
2018-11-28T12:36:59.559Z,9840.00
2018-11-28T12:37:59.588Z,9508.00
2018-11-28T12:38:59.618Z,9208.00
2018-11-28T12:39:59.650Z,9028.00
2018-11-28T12:40:59.680Z,8924.00